Pacific - South Coast: Past 24 Hour Conditions

 

Estevan Point

01:00 AM PST 28 November 2014
This table is a summary of hourly weather conditions for the past 24 hours.
Date / Time
(PST)
Wind(knots) Conditions Visibility(km) Pressure(kPa) Air tempC) Relative humidity(%) Dew pointC)
28 November 2014
1:00 WNW 20 gust 25 N/A N/A 100.2 7 75 3
0:00 WNW 25 N/A N/A 100.2 8 70 3
27 November 2014
23:00 NW 11 N/A N/A 100.1 7 96 7
22:00 WNW 23 N/A N/A 100.1 8 88 7
21:00 WNW 20 gust 28 N/A N/A 100.1 7 94 6
20:00 WNW 21 N/A N/A 98.5 9 97 8
19:00 WNW 17 N/A N/A 100.0 9 97 9
18:00 SSE 21 gust 26 N/A N/A 100.0 12 96 12
17:00 SSE 17 N/A N/A 100.1 12 96 12
16:00 S 17 gust 22 N/A N/A 100.2 12 95 11
15:00 SSE 19 N/A N/A 100.2 12 95 12
14:00 S 18 gust 23 N/A N/A 100.2 13 94 12
13:00 S 21 N/A N/A 100.2 13 97 12
12:00 S 18 gust 24 N/A N/A 100.2 12 98 12
11:00 S 21 gust 27 N/A N/A 100.3 12 98 12
10:00 SSE 18 N/A N/A 100.3 12 98 12
9:00 SSE 18 gust 23 N/A N/A 100.3 12 98 12
8:00 SSE 19 N/A N/A 100.3 12 98 12
7:00 SSE 18 N/A N/A 100.3 12 98 12
6:00 SSE 19 N/A N/A 100.4 12 98 12
5:00 SSE 18 N/A N/A 100.2 12 98 12
4:00 SSE 16 N/A N/A 100.2 12 98 12
3:00 SSE 14 N/A N/A 100.4 12 98 12
2:00 SSE 14 N/A N/A 100.5 12 98 12
1:00 SSE 12 N/A N/A 100.6 12 98 12
 
Map of Pacific - South Coast marine weather areas Tsawwassen Ferry Terminal South Nomad - 46036 Sentry Shoal - 46131 South Brooks - 46132 Halibut Bank - 46146 South Moresby - 46147 South Hecate Strait - 46185 West Sea Otter - 46204 La Perouse Bank - 46206 East Dellwood - 46207 Discovery Island Esquimalt Harbour Kelp Reefs Malahat Race Rocks Lightstation Saturna Island Sheringham Point University of Victoria Victoria Gonzales Victoria Int'l Airport Ballenas Islands Campbell River Airport Comox Airport Entrance Island Fanny Island Nanaimo Airport Port Hardy Airport Sisters Islets Estevan Point Sartine Island Solander Island Tofino Airport Grief Point Powell River Airport Sechelt Cape St.James Bella Bella Airport Bella Coola Airport Cathedral Point Herbert Island Point Atkinson Sand Heads Lightstation Vancouver Harbour Vancouver Int'l Airport West Vancouver Port Alberni Howe Sound - Pam Rocks Squamish Airport